Time;durP1;ratioP1;P1;durP2;ratioP2;P2;SDS_P1;SDS_P2;PMS_P1;PMS_P2;Temp;Humidity;BMP_temperature;BMP_pressure;BME280_temperature;BME280_humidity;BME280_pressure;Samples;Min_cycle;Max_cycle;Signal;HPM_P1;HPM_P2
2021/06/01 00:00:44;;;;;;;11.23;6.80;;;16.00;99.90;;;;;;5054460;28;20196;-76
2021/06/01 00:03:11;;;;;;;9.93;6.10;;;16.00;99.90;;;;;;5054811;28;20196;-77
2021/06/01 00:05:37;;;;;;;8.93;6.07;;;15.90;99.90;;;;;;5054489;28;20721;-77
2021/06/01 00:08:04;;;;;;;7.73;6.40;;;15.80;99.90;;;;;;5054501;28;20686;-77
2021/06/01 00:10:31;;;;;;;9.77;6.97;;;15.80;99.90;;;;;;5054473;28;20283;-76
2021/06/01 00:12:58;;;;;;;9.30;6.83;;;15.70;99.90;;;;;;5054320;28;20714;-75
2021/06/01 00:15:24;;;;;;;14.60;6.63;;;15.60;99.90;;;;;;5054216;28;20290;-76
2021/06/01 00:17:51;;;;;;;10.97;6.77;;;15.60;99.90;;;;;;5054537;28;20196;-76
2021/06/01 00:20:17;;;;;;;13.53;6.37;;;15.60;99.90;;;;;;5054111;28;20646;-77
2021/06/01 00:22:44;;;;;;;10.33;6.07;;;15.60;99.90;;;;;;5054280;28;20200;-75
2021/06/01 00:25:11;;;;;;;10.93;7.13;;;15.60;99.90;;;;;;5054233;28;20189;-77
2021/06/01 00:27:39;;;;;;;14.77;6.90;;;15.60;99.90;;;;;;5053978;28;20200;-78
2021/06/01 00:30:06;;;;;;;9.73;6.73;;;15.60;99.90;;;;;;5054397;28;20199;-79
2021/06/01 00:32:33;;;;;;;11.33;6.90;;;15.50;99.90;;;;;;5053662;28;20257;-78
2021/06/01 00:34:59;;;;;;;7.97;6.90;;;15.50;99.90;;;;;;5053925;28;20188;-77
2021/06/01 00:37:25;;;;;;;9.97;7.10;;;15.50;99.90;;;;;;5053955;28;20202;-76
2021/06/01 00:39:52;;;;;;;10.83;6.47;;;15.50;99.90;;;;;;5053413;28;20283;-78
2021/06/01 00:42:18;;;;;;;9.03;6.47;;;15.50;99.90;;;;;;5053075;28;20192;-78
2021/06/01 00:44:47;;;;;;;13.53;6.67;;;15.50;99.90;;;;;;5054152;28;20295;-77
2021/06/01 00:47:13;;;;;;;11.07;6.87;;;15.50;99.90;;;;;;5053774;28;20219;-77
2021/06/01 00:49:39;;;;;;;12.57;7.30;;;15.40;99.90;;;;;;5053830;28;20557;-78
2021/06/01 00:52:06;;;;;;;11.73;6.37;;;15.20;99.90;;;;;;5053521;28;20196;-78
2021/06/01 00:54:33;;;;;;;8.70;6.43;;;15.10;99.90;;;;;;5053888;28;20686;-78
2021/06/01 00:57:00;;;;;;;11.70;6.87;;;15.10;99.90;;;;;;5053919;28;20279;-77
2021/06/01 00:59:26;;;;;;;12.40;7.07;;;15.10;99.90;;;;;;5053939;28;20207;-77
2021/06/01 01:01:54;;;;;;;11.50;6.93;;;14.90;99.90;;;;;;5054428;28;20339;-77
2021/06/01 01:04:21;;;;;;;12.50;7.10;;;15.00;99.90;;;;;;5054874;28;20340;-77
2021/06/01 01:06:57;;;;;;;11.13;7.07;;;14.90;99.90;;;;;;5054130;28;20216;-76
2021/06/01 01:09:26;;;;;;;12.13;7.10;;;14.90;99.90;;;;;;5054463;28;20188;-76
2021/06/01 01:11:58;;;;;;;10.67;6.83;;;14.80;99.90;;;;;;5053251;28;20646;-77
2021/06/01 01:14:28;;;;;;;11.23;7.27;;;14.70;99.90;;;;;;5053535;28;20212;-78
2021/06/01 01:17:01;;;;;;;9.73;7.00;;;14.60;99.90;;;;;;5053775;28;20236;-78
2021/06/01 01:20:10;;;;;;;10.90;7.17;;;14.50;99.90;;;;;;5053576;28;20283;-78
2021/06/01 01:22:39;;;;;;;12.37;7.13;;;14.40;99.90;;;;;;5005017;28;20200;-77
2021/06/01 01:25:12;;;;;;;9.53;6.70;;;14.30;99.90;;;;;;5053922;28;20279;-79
2021/06/01 01:27:57;;;;;;;11.77;7.13;;;14.20;99.90;;;;;;5053001;28;20188;-76
2021/06/01 01:30:29;;;;;;;8.80;6.30;;;14.10;99.90;;;;;;5053203;28;20211;-76
2021/06/01 01:33:14;;;;;;;10.20;6.60;;;14.00;99.90;;;;;;5053166;28;20344;-76
2021/06/01 01:35:43;;;;;;;10.07;6.63;;;13.90;99.90;;;;;;5053280;28;20661;-77
2021/06/01 01:38:11;;;;;;;7.93;6.23;;;13.90;99.90;;;;;;5053410;28;20737;-78
2021/06/01 01:40:38;;;;;;;11.43;7.17;;;13.90;99.90;;;;;;5053235;28;20290;-76
2021/06/01 01:43:08;;;;;;;12.63;6.80;;;13.80;99.90;;;;;;5053237;28;20268;-76
2021/06/01 01:45:37;;;;;;;12.10;6.90;;;13.70;99.90;;;;;;5052930;28;20192;-76
2021/06/01 01:50:59;;;;;;;9.53;7.03;;;13.70;99.90;;;;;;5053063;28;20205;-76
2021/06/01 01:53:26;;;;;;;15.37;7.23;;;13.70;99.90;;;;;;5052452;28;20792;-76
2021/06/01 01:55:54;;;;;;;12.60;7.73;;;13.70;99.90;;;;;;5052875;28;20212;-77
2021/06/01 01:58:21;;;;;;;12.60;8.43;;;13.60;99.90;;;;;;5053325;28;20192;-77
2021/06/01 02:00:49;;;;;;;15.17;8.87;;;13.60;99.90;;;;;;5052533;28;20279;-76
2021/06/01 02:03:20;;;;;;;13.80;8.20;;;13.70;99.90;;;;;;5053089;28;20208;-76
2021/06/01 02:05:47;;;;;;;16.60;8.13;;;13.50;99.90;;;;;;5052626;28;20607;-76
2021/06/01 02:08:13;;;;;;;13.90;8.50;;;13.50;99.90;;;;;;5053154;28;20280;-76
2021/06/01 02:10:40;;;;;;;16.47;8.60;;;13.50;99.90;;;;;;5052737;28;20623;-76
2021/06/01 02:13:07;;;;;;;13.80;7.70;;;13.40;99.90;;;;;;5052369;28;20208;-76
2021/06/01 02:15:34;;;;;;;14.00;8.20;;;13.30;99.90;;;;;;5052632;28;20202;-77
2021/06/01 02:18:00;;;;;;;13.37;8.57;;;13.50;99.90;;;;;;5052946;28;20230;-76
2021/06/01 02:20:29;;;;;;;15.60;8.23;;;13.40;99.90;;;;;;5052116;28;20277;-76
2021/06/01 02:25:49;;;;;;;14.03;9.00;;;13.30;99.90;;;;;;5032917;28;20232;-76
2021/06/01 02:28:21;;;;;;;14.00;8.63;;;13.30;99.90;;;;;;5050237;28;20208;-76
2021/06/01 02:30:55;;;;;;;16.87;9.20;;;13.20;99.90;;;;;;5052672;28;20294;-75
2021/06/01 02:33:24;;;;;;;13.63;9.57;;;13.20;99.90;;;;;;5052107;28;20212;-77
2021/06/01 02:35:53;;;;;;;12.67;8.60;;;13.20;99.90;;;;;;5052635;28;20197;-75
2021/06/01 02:38:20;;;;;;;13.73;9.03;;;13.10;99.90;;;;;;5052151;28;20192;-76
2021/06/01 02:40:48;;;;;;;12.30;8.43;;;13.20;99.90;;;;;;5052756;28;20549;-77
2021/06/01 02:43:15;;;;;;;15.97;9.20;;;13.20;99.90;;;;;;5052634;28;20200;-75
2021/06/01 02:45:43;;;;;;;18.20;10.10;;;13.10;99.90;;;;;;5052705;28;20326;-76
2021/06/01 02:48:13;;;;;;;16.60;9.60;;;13.00;99.90;;;;;;5052559;28;20242;-75
2021/06/01 02:50:41;;;;;;;18.00;9.00;;;13.00;99.90;;;;;;5052663;28;20285;-76
2021/06/01 02:53:11;;;;;;;15.13;9.90;;;12.90;99.90;;;;;;5052333;28;20192;-76
2021/06/01 02:55:37;;;;;;;17.17;10.13;;;12.90;99.90;;;;;;5052430;28;20192;-76
2021/06/01 02:58:06;;;;;;;16.37;10.10;;;12.80;99.90;;;;;;5051512;28;20651;-75
2021/06/01 03:00:35;;;;;;;16.57;10.50;;;12.80;99.90;;;;;;5051811;28;20588;-77
2021/06/01 03:03:05;;;;;;;18.57;11.07;;;12.80;99.90;;;;;;5052119;28;20227;-77
2021/06/01 03:05:32;;;;;;;20.13;10.80;;;12.80;99.90;;;;;;5054684;28;20192;-78
2021/06/01 03:08:10;;;;;;;22.67;11.67;;;12.70;99.90;;;;;;5055859;28;20342;-76
2021/06/01 03:10:37;;;;;;;19.27;10.37;;;12.70;99.90;;;;;;5055790;28;20215;-76
2021/06/01 03:13:03;;;;;;;16.67;10.60;;;12.60;99.90;;;;;;5055495;28;20193;-76
2021/06/01 03:15:30;;;;;;;19.67;10.83;;;12.60;99.90;;;;;;5055675;28;20191;-76
2021/06/01 03:17:56;;;;;;;16.40;10.10;;;12.60;99.90;;;;;;5055231;28;20622;-78
2021/06/01 03:20:23;;;;;;;13.80;9.60;;;12.60;99.90;;;;;;5055794;28;20287;-76
2021/06/01 03:22:49;;;;;;;16.23;10.47;;;12.60;99.90;;;;;;5055188;28;20716;-77
2021/06/01 03:25:17;;;;;;;16.57;10.60;;;12.60;99.90;;;;;;5055927;28;20642;-77
2021/06/01 03:27:44;;;;;;;16.60;10.53;;;12.60;99.90;;;;;;5055407;28;20203;-76
2021/06/01 03:30:12;;;;;;;18.13;10.93;;;12.50;99.90;;;;;;5055549;28;20203;-75
2021/06/01 03:32:39;;;;;;;17.50;10.93;;;12.60;99.90;;;;;;5055398;28;20236;-74
2021/06/01 03:35:07;;;;;;;22.13;11.47;;;12.60;99.90;;;;;;5055249;28;20252;-78
2021/06/01 03:37:34;;;;;;;16.10;11.27;;;12.60;99.90;;;;;;5055553;28;20282;-76
2021/06/01 03:40:00;;;;;;;18.83;11.23;;;12.50;99.90;;;;;;5055032;28;20255;-76
2021/06/01 03:42:28;;;;;;;22.63;11.20;;;12.50;99.90;;;;;;5055417;28;20283;-75
2021/06/01 03:44:54;;;;;;;20.70;10.93;;;12.50;99.90;;;;;;5054840;28;20192;-77
2021/06/01 03:47:21;;;;;;;18.33;11.03;;;12.60;99.90;;;;;;5055212;28;20680;-77
2021/06/01 03:49:47;;;;;;;22.50;11.27;;;12.60;99.90;;;;;;5055281;28;20367;-75
2021/06/01 03:52:13;;;;;;;19.97;12.10;;;12.70;99.90;;;;;;5055531;28;20275;-76
2021/06/01 03:54:40;;;;;;;20.23;11.43;;;12.70;99.90;;;;;;5054763;28;20334;-75
2021/06/01 03:57:10;;;;;;;17.63;11.67;;;12.70;99.90;;;;;;5054709;28;20627;-77
2021/06/01 03:59:37;;;;;;;20.50;12.03;;;12.70;99.90;;;;;;5054572;28;20294;-75
2021/06/01 04:02:04;;;;;;;19.37;13.23;;;12.80;99.90;;;;;;5054657;28;20280;-78
2021/06/01 04:04:31;;;;;;;21.33;11.73;;;12.90;99.90;;;;;;5054425;28;20648;-75
2021/06/01 04:06:57;;;;;;;22.83;12.20;;;13.00;99.90;;;;;;5054864;28;20289;-76
2021/06/01 04:09:24;;;;;;;22.27;12.00;;;13.20;99.90;;;;;;5054737;28;20295;-75
2021/06/01 04:11:50;;;;;;;19.43;10.50;;;13.40;99.90;;;;;;5054562;28;20651;-76
2021/06/01 04:14:19;;;;;;;21.43;11.50;;;13.60;99.90;;;;;;5054331;28;20697;-77
2021/06/01 04:16:47;;;;;;;19.10;11.37;;;13.70;99.90;;;;;;5054355;28;20207;-75
2021/06/01 04:19:13;;;;;;;19.83;10.57;;;13.90;99.90;;;;;;5053970;28;20714;-76
2021/06/01 04:21:42;;;;;;;18.80;10.27;;;14.20;99.90;;;;;;5054319;28;20288;-76
2021/06/01 04:24:09;;;;;;;16.17;9.90;;;14.30;99.90;;;;;;5054060;28;20618;-75
2021/06/01 04:26:35;;;;;;;16.97;10.63;;;14.70;99.90;;;;;;5054439;28;20669;-77
2021/06/01 04:29:01;;;;;;;17.83;10.37;;;15.20;99.90;;;;;;5054205;28;20275;-75
2021/06/01 04:31:28;;;;;;;19.83;10.20;;;16.30;99.90;;;;;;5054223;28;20604;-77
2021/06/01 04:33:55;;;;;;;18.90;10.47;;;17.60;99.90;;;;;;5054430;28;20243;-76
2021/06/01 04:36:24;;;;;;;14.80;10.67;;;19.00;99.90;;;;;;5050224;28;20287;-76
2021/06/01 04:38:51;;;;;;;19.03;11.43;;;20.20;99.90;;;;;;5053321;28;20192;-75
2021/06/01 04:41:17;;;;;;;20.10;11.77;;;21.30;99.90;;;;;;5053854;28;20291;-76
2021/06/01 04:43:43;;;;;;;23.95;11.32;;;22.40;99.90;;;;;;5053824;28;20288;-76
2021/06/01 04:46:10;;;;;;;20.48;11.05;;;23.50;99.90;;;;;;5054239;28;20282;-76
2021/06/01 04:48:36;;;;;;;19.95;11.82;;;24.40;99.90;;;;;;5053783;28;20208;-75
2021/06/01 04:51:04;;;;;;;14.55;10.48;;;25.40;99.90;;;;;;5053599;28;20195;-77
2021/06/01 04:53:30;;;;;;;14.38;10.65;;;26.30;99.90;;;;;;5053654;28;20322;-76
2021/06/01 04:55:57;;;;;;;21.45;10.23;;;26.90;99.90;;;;;;5053502;28;20192;-77
2021/06/01 04:58:23;;;;;;;15.73;10.60;;;27.50;99.90;;;;;;5053412;28;20596;-78
2021/06/01 05:00:49;;;;;;;13.40;10.00;;;28.00;99.90;;;;;;5054061;28;20303;-76
2021/06/01 05:03:16;;;;;;;11.27;9.43;;;28.30;99.90;;;;;;5053341;28;20200;-76
2021/06/01 05:05:42;;;;;;;22.75;9.82;;;28.70;99.90;;;;;;5053059;28;20192;-77
2021/06/01 05:08:10;;;;;;;18.98;10.43;;;28.40;99.90;;;;;;5052989;28;20199;-75
2021/06/01 05:10:36;;;;;;;11.77;9.38;;;27.60;99.90;;;;;;5053492;28;20279;-77
2021/06/01 05:13:03;;;;;;;21.02;10.50;;;26.50;99.90;;;;;;5052065;28;20218;-76
2021/06/01 05:15:29;;;;;;;15.55;9.90;;;25.30;99.90;;;;;;5052456;28;20653;-76
2021/06/01 05:17:56;;;;;;;19.85;9.88;;;23.90;99.90;;;;;;5052207;28;20231;-78
2021/06/01 05:20:22;;;;;;;18.08;10.40;;;22.90;99.90;;;;;;5052269;28;20219;-76
2021/06/01 05:22:48;;;;;;;21.67;9.63;;;22.10;99.90;;;;;;5041099;28;20232;-74
2021/06/01 05:25:16;;;;;;;21.23;10.30;;;22.60;99.90;;;;;;5051264;28;20203;-75
2021/06/01 05:27:42;;;;;;;24.15;10.02;;;23.50;99.90;;;;;;5049551;28;20192;-75
2021/06/01 05:30:10;;;;;;;19.65;10.05;;;24.70;99.90;;;;;;5049563;28;20699;-77
2021/06/01 05:33:11;;;;;;;20.50;9.18;;;25.80;99.90;;;;;;5051663;28;20571;-76
2021/06/01 05:35:41;;;;;;;13.48;8.93;;;26.80;99.90;;;;;;5038498;28;20206;-76
2021/06/01 05:38:07;;;;;;;18.92;8.60;;;28.10;99.90;;;;;;5051086;28;20188;-76
2021/06/01 05:40:35;;;;;;;14.60;7.80;;;28.70;99.90;;;;;;5050682;28;20709;-77
2021/06/01 05:43:02;;;;;;;19.70;8.18;;;28.20;99.90;;;;;;5050694;28;20226;-77
2021/06/01 05:45:29;;;;;;;12.57;7.60;;;27.10;99.90;;;;;;5050055;28;20193;-78
2021/06/01 05:47:55;;;;;;;16.13;7.82;;;26.50;99.90;;;;;;5051041;28;20231;-77
2021/06/01 05:50:22;;;;;;;19.13;7.38;;;26.80;99.90;;;;;;5051950;28;20196;-77
2021/06/01 05:52:49;;;;;;;15.73;6.70;;;27.20;99.90;;;;;;5052193;28;20216;-76
2021/06/01 05:55:15;;;;;;;12.05;6.53;;;27.90;99.90;;;;;;5050271;28;20302;-77
2021/06/01 05:57:43;;;;;;;10.02;6.10;;;29.10;99.90;;;;;;5048183;28;20240;-77
2021/06/01 06:00:13;;;;;;;17.65;6.03;;;29.40;99.90;;;;;;5050606;28;20215;-76
2021/06/01 06:02:39;;;;;;;9.90;6.05;;;30.40;99.90;;;;;;5049398;28;20218;-76
2021/06/01 06:05:06;;;;;;;12.65;5.80;;;31.30;99.90;;;;;;5049684;28;20242;-76
2021/06/01 06:07:33;;;;;;;9.60;5.60;;;31.70;99.90;;;;;;5051084;28;20287;-77
2021/06/01 06:09:59;;;;;;;10.38;4.38;;;32.30;99.90;;;;;;5056606;28;20314;-76
2021/06/01 06:12:26;;;;;;;7.97;4.57;;;32.50;99.90;;;;;;5050124;28;20298;-76
2021/06/01 06:14:53;;;;;;;8.25;4.65;;;33.00;99.90;;;;;;5051366;28;20248;-76
2021/06/01 06:17:30;;;;;;;6.82;4.30;;;33.00;99.90;;;;;;5051661;28;20203;-76
2021/06/01 06:19:59;;;;;;;6.78;3.67;;;33.20;99.90;;;;;;5050334;28;20230;-75
2021/06/01 06:22:25;;;;;;;7.57;4.60;;;32.90;99.90;;;;;;5051722;28;20188;-76
2021/06/01 06:24:52;;;;;;;6.60;3.70;;;33.50;99.90;;;;;;5050814;28;20275;-76
2021/06/01 06:27:18;;;;;;;5.53;4.07;;;34.10;99.90;;;;;;5049854;28;20220;-78
2021/06/01 06:29:45;;;;;;;8.68;3.80;;;34.30;99.90;;;;;;5047841;28;20242;-76
2021/06/01 06:32:12;;;;;;;11.88;4.05;;;34.40;99.70;;;;;;5051295;28;20224;-76
2021/06/01 06:34:39;;;;;;;8.45;3.47;;;34.10;99.30;;;;;;5050238;28;20307;-75
2021/06/01 06:37:05;;;;;;;10.77;3.42;;;33.80;99.20;;;;;;5049097;28;20204;-74
2021/06/01 06:39:32;;;;;;;12.43;3.83;;;33.50;99.30;;;;;;5052534;28;20204;-76
2021/06/01 06:41:59;;;;;;;4.78;3.13;;;34.20;98.50;;;;;;5053137;28;20192;-76
2021/06/01 06:44:25;;;;;;;7.82;3.40;;;33.90;96.50;;;;;;5051499;28;20283;-76
2021/06/01 06:47:04;;;;;;;9.88;3.17;;;33.40;96.80;;;;;;5050980;28;20208;-75
2021/06/01 06:49:32;;;;;;;9.00;3.20;;;32.70;97.40;;;;;;5045232;28;20192;-75
2021/06/01 06:51:59;;;;;;;6.30;3.20;;;32.60;97.50;;;;;;5055588;28;20231;-75
2021/06/01 06:54:25;;;;;;;3.60;3.30;;;33.40;97.70;;;;;;5055374;28;20737;-76
2021/06/01 06:56:52;;;;;;;5.63;3.35;;;33.80;95.80;;;;;;5053435;28;20284;-74
2021/06/01 06:59:18;;;;;;;6.13;3.20;;;34.00;95.00;;;;;;5055862;28;20684;-76
2021/06/01 07:01:45;;;;;;;7.20;3.13;;;34.40;95.00;;;;;;5055663;28;20185;-75
2021/06/01 07:04:11;;;;;;;6.57;3.30;;;34.80;96.50;;;;;;5055970;28;20196;-75
2021/06/01 07:06:39;;;;;;;3.47;2.90;;;34.90;94.30;;;;;;5055662;28;20200;-74
2021/06/01 07:09:07;;;;;;;8.05;3.30;;;34.20;95.90;;;;;;5056060;28;20219;-77
2021/06/01 07:11:33;;;;;;;6.57;3.30;;;34.10;95.60;;;;;;5054978;28;20279;-75
2021/06/01 07:14:07;;;;;;;4.78;2.80;;;34.60;95.40;;;;;;5054861;28;20568;-76
2021/06/01 07:16:33;;;;;;;4.80;3.35;;;33.80;94.50;;;;;;5076515;28;20202;-75
2021/06/01 07:19:00;;;;;;;4.95;3.03;;;33.20;94.70;;;;;;5055052;28;20620;-74
2021/06/01 07:21:26;;;;;;;5.40;2.92;;;32.40;96.20;;;;;;5055033;28;20204;-75
2021/06/01 07:23:54;;;;;;;5.72;3.17;;;32.40;95.70;;;;;;5055902;28;20650;-75
2021/06/01 07:26:20;;;;;;;4.50;2.70;;;32.30;95.20;;;;;;5056079;28;20199;-75
2021/06/01 07:28:47;;;;;;;6.82;3.28;;;31.80;94.80;;;;;;5054780;28;20287;-75
2021/06/01 07:31:14;;;;;;;6.57;3.20;;;31.50;95.90;;;;;;5054896;28;20188;-75
2021/06/01 07:33:42;;;;;;;6.07;2.67;;;30.90;96.80;;;;;;5055168;28;20664;-75
2021/06/01 07:36:08;;;;;;;4.28;2.80;;;30.80;96.90;;;;;;5055646;28;20192;-75
2021/06/01 07:38:35;;;;;;;3.47;2.67;;;30.80;96.90;;;;;;5056205;28;20646;-75
2021/06/01 07:41:04;;;;;;;3.97;2.58;;;31.30;98.00;;;;;;5056281;28;20288;-75
2021/06/01 07:43:31;;;;;;;4.30;2.55;;;31.40;95.50;;;;;;5053404;28;20220;-76
2021/06/01 07:45:57;;;;;;;3.45;2.63;;;30.70;96.10;;;;;;5054261;28;20188;-75
2021/06/01 07:48:24;;;;;;;3.42;2.67;;;30.30;96.30;;;;;;5054008;28;20654;-75
2021/06/01 07:50:50;;;;;;;4.82;2.67;;;30.20;96.00;;;;;;5054889;28;20518;-77
2021/06/01 07:53:17;;;;;;;3.28;2.55;;;29.80;96.30;;;;;;5054884;28;20291;-76
2021/06/01 07:55:44;;;;;;;3.00;2.42;;;29.90;96.40;;;;;;5053362;28;20244;-76
2021/06/01 07:58:12;;;;;;;3.72;2.40;;;30.00;96.20;;;;;;5053785;28;20554;-76
2021/06/01 08:00:38;;;;;;;3.95;2.80;;;29.30;96.90;;;;;;5053133;28;20192;-75
2021/06/01 08:03:05;;;;;;;3.90;2.38;;;29.00;96.00;;;;;;5052413;28;20207;-76
2021/06/01 08:05:31;;;;;;;9.05;3.00;;;29.20;96.40;;;;;;5051610;28;20206;-75
2021/06/01 08:07:57;;;;;;;4.72;2.63;;;29.10;97.10;;;;;;5062857;28;20237;-77
2021/06/01 08:10:24;;;;;;;3.40;2.58;;;29.50;96.40;;;;;;5052116;28;20199;-75
2021/06/01 08:12:52;;;;;;;2.67;2.40;;;28.90;95.90;;;;;;5052544;28;20283;-75
2021/06/01 08:15:22;;;;;;;3.65;2.40;;;29.60;96.40;;;;;;5052467;28;20385;-74
2021/06/01 08:17:51;;;;;;;2.67;2.28;;;29.50;95.40;;;;;;5049250;28;20654;-77
2021/06/01 08:20:27;;;;;;;5.03;2.25;;;29.30;95.70;;;;;;5053946;28;20196;-76
2021/06/01 08:22:54;;;;;;;3.55;2.10;;;29.20;95.70;;;;;;5054452;28;20284;-75
2021/06/01 08:25:20;;;;;;;3.65;2.47;;;29.10;95.40;;;;;;5053788;28;20658;-76
2021/06/01 08:27:47;;;;;;;2.92;2.47;;;29.30;95.70;;;;;;5053047;28;20243;-76
2021/06/01 08:30:15;;;;;;;4.30;2.28;;;29.10;94.70;;;;;;5054078;28;20192;-76
2021/06/01 08:32:43;;;;;;;3.65;2.13;;;29.00;94.50;;;;;;5051893;28;20547;-76
2021/06/01 08:35:10;;;;;;;6.40;2.30;;;29.40;95.30;;;;;;5054326;28;20582;-77
2021/06/01 08:37:36;;;;;;;3.53;2.50;;;29.20;95.70;;;;;;5053360;28;20279;-74
2021/06/01 08:40:05;;;;;;;3.45;2.28;;;29.10;94.80;;;;;;5052834;28;20230;-76
2021/06/01 08:42:31;;;;;;;4.10;2.20;;;29.30;95.40;;;;;;5041625;28;20279;-74
2021/06/01 08:44:57;;;;;;;3.33;2.00;;;29.20;94.70;;;;;;5053404;28;20207;-75
2021/06/01 08:47:24;;;;;;;2.47;2.00;;;29.50;95.20;;;;;;5053781;28;20326;-74
2021/06/01 08:49:51;;;;;;;3.90;2.17;;;29.40;94.20;;;;;;5053084;28;20187;-74
2021/06/01 08:52:18;;;;;;;5.50;2.25;;;29.90;94.20;;;;;;5053686;28;20710;-74
2021/06/01 08:54:45;;;;;;;2.45;2.13;;;30.10;95.20;;;;;;5053695;28;20219;-75
2021/06/01 08:57:12;;;;;;;2.45;2.10;;;30.30;93.70;;;;;;5053636;28;20219;-75
2021/06/01 08:59:40;;;;;;;2.55;2.20;;;30.30;94.00;;;;;;5053702;28;20220;-76
2021/06/01 09:02:07;;;;;;;2.80;2.20;;;30.20;93.80;;;;;;5053061;28;20192;-74
2021/06/01 09:04:50;;;;;;;4.45;2.20;;;30.20;94.40;;;;;;5053840;28;20614;-76
2021/06/01 09:07:31;;;;;;;3.22;2.28;;;30.70;93.10;;;;;;5039110;28;20180;-75
2021/06/01 09:10:31;;;;;;;2.63;2.35;;;30.80;93.80;;;;;;5051401;28;20261;-76
2021/06/01 09:19:46;;;;;;;5.80;2.20;;;31.70;94.20;;;;;;5043476;28;20665;-75
2021/06/01 09:21:18;;;;;;;2.25;1.92;;;31.00;92.50;;;;;;5050449;28;20203;-75
2021/06/01 09:23:50;;;;;;;2.03;1.83;;;29.90;93.90;;;;;;5051790;28;20318;-74
2021/06/01 09:26:43;;;;;;;3.95;2.40;;;29.70;92.70;;;;;;5051006;28;20706;-74
2021/06/01 09:29:10;;;;;;;4.85;2.08;;;28.60;93.20;;;;;;5049389;28;20188;-75
2021/06/01 09:31:36;;;;;;;3.72;2.20;;;28.30;93.90;;;;;;5051724;28;20230;-75
2021/06/01 09:34:03;;;;;;;3.45;2.20;;;29.10;94.00;;;;;;5050160;28;20216;-76
2021/06/01 09:36:29;;;;;;;3.03;2.10;;;29.70;93.80;;;;;;5051405;28;20192;-76
2021/06/01 09:38:57;;;;;;;3.25;2.00;;;30.00;93.00;;;;;;5052680;28;20185;-77
2021/06/01 09:41:26;;;;;;;3.00;2.10;;;29.30;94.30;;;;;;5053099;28;20208;-74
2021/06/01 09:43:54;;;;;;;3.92;2.25;;;30.00;93.00;;;;;;5052587;28;20220;-77
2021/06/01 09:46:22;;;;;;;4.68;2.00;;;29.70;92.30;;;;;;5052643;28;20242;-77
2021/06/01 09:48:49;;;;;;;3.20;1.90;;;30.30;94.00;;;;;;5052005;28;20192;-76
2021/06/01 09:51:27;;;;;;;2.45;2.10;;;31.70;92.60;;;;;;5051777;28;20303;-75
2021/06/01 09:53:55;;;;;;;3.55;1.83;;;32.70;91.90;;;;;;5051779;28;20705;-76
2021/06/01 09:56:23;;;;;;;4.38;2.25;;;33.00;92.50;;;;;;5051775;28;20194;-77
2021/06/01 09:58:51;;;;;;;6.05;2.55;;;32.90;91.90;;;;;;5052198;28;20200;-77
2021/06/01 10:01:18;;;;;;;5.03;2.22;;;32.30;91.60;;;;;;5052552;28;20630;-76
2021/06/01 10:03:46;;;;;;;6.10;2.67;;;32.80;92.50;;;;;;5050809;28;20194;-75
2021/06/01 10:06:13;;;;;;;2.58;2.25;;;33.10;91.20;;;;;;5046204;28;20207;-74
2021/06/01 10:08:46;;;;;;;3.47;2.30;;;31.80;91.80;;;;;;5053235;28;20195;-74
2021/06/01 10:11:13;;;;;;;3.58;2.20;;;30.30;91.30;;;;;;5052705;28;20188;-75
2021/06/01 10:13:42;;;;;;;3.80;2.45;;;29.50;93.60;;;;;;5055552;28;20279;-75
2021/06/01 10:16:11;;;;;;;3.08;2.47;;;29.20;93.60;;;;;;5058248;28;20275;-74
2021/06/01 10:18:40;;;;;;;3.80;2.90;;;29.20;92.20;;;;;;5057410;28;20580;-76
2021/06/01 10:21:09;;;;;;;3.08;2.42;;;29.20;93.50;;;;;;5057135;28;20654;-75
2021/06/01 10:23:37;;;;;;;3.70;2.70;;;29.10;93.90;;;;;;5058531;28;20200;-75
2021/06/01 10:26:06;;;;;;;2.88;2.35;;;29.70;93.40;;;;;;5057132;28;20199;-76
2021/06/01 10:28:33;;;;;;;4.78;2.20;;;29.10;93.80;;;;;;5057696;28;20305;-74
2021/06/01 10:31:04;;;;;;;3.47;2.40;;;28.90;94.70;;;;;;5057710;28;20204;-75
2021/06/01 10:33:37;;;;;;;5.38;2.42;;;29.50;93.80;;;;;;5056750;28;20200;-74
2021/06/01 10:36:17;;;;;;;7.18;2.38;;;30.10;93.40;;;;;;5056221;28;20228;-75
2021/06/01 10:50:28;;;;;;;4.80;2.40;;;29.20;94.50;;;;;;5051105;28;20322;-78
2021/06/01 10:53:06;;;;;;;5.28;2.72;;;30.20;94.40;;;;;;5056467;28;20177;-77
2021/06/01 10:56:01;;;;;;;3.42;2.70;;;30.50;95.70;;;;;;5055798;28;20682;-77
2021/06/01 10:58:52;;;;;;;3.45;2.60;;;31.50;94.00;;;;;;5036988;28;20215;-75
2021/06/01 11:04:15;;;;;;;9.63;2.50;;;30.50;93.50;;;;;;5049071;28;20215;-76
2021/06/01 11:07:11;;;;;;;6.78;2.55;;;30.10;94.20;;;;;;5046349;28;20192;-75
2021/06/01 11:09:48;;;;;;;4.78;2.40;;;29.90;94.60;;;;;;5051763;28;20188;-76
2021/06/01 11:12:43;;;;;;;2.60;2.40;;;29.20;94.30;;;;;;5043345;28;20203;-74
2021/06/01 11:15:35;;;;;;;3.80;2.30;;;28.90;94.40;;;;;;5055632;28;20665;-75
2021/06/01 11:18:28;;;;;;;4.07;2.40;;;29.00;94.20;;;;;;5048792;28;20207;-76
2021/06/01 11:21:11;;;;;;;5.68;2.50;;;28.80;95.00;;;;;;5056388;28;20192;-76
2021/06/01 11:35:41;;;;;;;5.57;2.35;;;30.00;94.90;;;;;;5054969;28;20211;-78
2021/06/01 11:38:16;;;;;;;5.35;2.63;;;29.70;95.80;;;;;;5052423;28;20671;-77
2021/06/01 11:41:05;;;;;;;4.50;2.78;;;29.40;94.90;;;;;;5054254;28;20282;-76
2021/06/01 11:43:32;;;;;;;5.20;2.50;;;29.70;95.00;;;;;;5055336;28;20184;-77
2021/06/01 11:46:07;;;;;;;3.17;2.25;;;29.20;94.90;;;;;;5054524;28;20204;-78
2021/06/01 11:51:30;;;;;;;4.45;2.20;;;28.50;95.50;;;;;;5053562;28;20214;-78
2021/06/01 11:54:00;;;;;;;2.40;2.10;;;28.30;94.50;;;;;;5054073;28;20280;-76
2021/06/01 11:57:12;;;;;;;3.40;2.30;;;27.90;94.80;;;;;;5055424;28;20231;-78
2021/06/01 12:02:52;;;;;;;4.28;2.20;;;28.50;94.50;;;;;;5053543;28;20203;-77
2021/06/01 12:05:36;;;;;;;2.28;1.83;;;29.20;94.10;;;;;;5053786;28;20554;-77
2021/06/01 12:19:07;;;;;;;4.13;2.25;;;28.60;94.70;;;;;;5052602;28;20188;-76
2021/06/01 12:21:37;;;;;;;2.88;2.38;;;28.40;94.20;;;;;;5053161;28;20958;-77
2021/06/01 12:24:06;;;;;;;2.38;2.10;;;28.70;95.80;;;;;;5053938;28;20630;-78
2021/06/01 12:26:41;;;;;;;2.40;2.20;;;28.60;93.70;;;;;;5051843;28;20188;-76
2021/06/01 12:32:02;;;;;;;3.22;2.10;;;28.80;94.90;;;;;;5052782;28;20257;-77
2021/06/01 12:34:39;;;;;;;2.28;2.08;;;29.30;92.40;;;;;;5053183;28;20204;-77
2021/06/01 12:42:54;;;;;;;2.70;2.33;;;28.80;94.60;;;;;;5053572;28;20564;-76
2021/06/01 13:21:47;;;;;;;3.33;2.40;;;27.10;95.40;;;;;;5040705;28;20192;-77
2021/06/01 13:30:12;;;;;;;2.30;2.10;;;27.60;97.00;;;;;;5053848;28;20589;-78
2021/06/01 13:30:30;;;;;;;3.15;1.73;;;28.00;94.50;;;;;;5051712;28;20191;-77
2021/06/01 13:38:46;;;;;;;3.88;2.60;;;28.10;94.30;;;;;;5051056;28;20260;-77
2021/06/01 13:46:48;;;;;;;5.85;2.50;;;26.90;95.30;;;;;;5049354;28;20202;-78
2021/06/01 13:49:22;;;;;;;2.42;2.22;;;27.30;94.90;;;;;;5051304;28;20184;-77
2021/06/01 13:52:08;;;;;;;3.40;2.10;;;27.40;95.30;;;;;;5048284;28;20202;-79
2021/06/01 13:57:27;;;;;;;4.10;2.10;;;27.10;95.80;;;;;;5052208;28;20249;-77
2021/06/01 14:00:11;;;;;;;4.07;2.40;;;27.10;95.50;;;;;;5052495;28;20184;-78
2021/06/01 14:05:38;;;;;;;3.85;2.20;;;27.40;94.30;;;;;;5052197;28;20200;-77
2021/06/01 14:31:00;;;;;;;2.60;2.40;;;27.40;95.20;;;;;;5049711;28;20678;-77
2021/06/01 14:36:23;;;;;;;4.68;2.30;;;26.70;95.10;;;;;;5051243;28;20664;-78
2021/06/01 15:28:59;;;;;;;5.38;2.28;;;26.50;96.80;;;;;;5053486;28;20203;-78
2021/06/01 15:31:45;;;;;;;4.43;1.98;;;26.60;95.50;;;;;;5053349;28;20539;-76
2021/06/01 15:48:14;;;;;;;3.92;2.42;;;26.40;96.40;;;;;;5051833;28;20195;-75
2021/06/01 15:50:47;;;;;;;4.63;2.30;;;26.40;96.30;;;;;;5051832;28;20199;-78
2021/06/01 16:23:54;;;;;;;9.32;2.13;;;26.20;97.50;;;;;;5051852;28;20275;-78
2021/06/01 16:32:02;;;;;;;5.32;2.50;;;26.30;98.20;;;;;;5048714;28;20238;-75
2021/06/01 16:43:20;;;;;;;5.10;2.50;;;26.30;96.80;;;;;;5019310;28;20726;-79
2021/06/01 17:05:11;;;;;;;3.42;2.53;;;26.10;97.20;;;;;;5050012;28;20215;-78
2021/06/01 17:07:58;;;;;;;3.55;2.70;;;25.90;97.60;;;;;;5047815;28;20283;-75
2021/06/01 17:13:14;;;;;;;3.63;2.35;;;26.00;98.40;;;;;;5050291;28;20203;-76
2021/06/01 17:15:42;;;;;;;4.43;2.33;;;26.10;98.50;;;;;;5052615;28;20220;-76
2021/06/01 17:18:17;;;;;;;3.80;2.50;;;26.10;98.50;;;;;;5052029;28;20196;-79
2021/06/01 17:23:53;;;;;;;2.67;2.35;;;26.00;97.60;;;;;;5043056;28;20196;-76
2021/06/01 17:32:02;;;;;;;4.72;2.80;;;26.10;99.50;;;;;;5040562;28;20200;-76
2021/06/01 17:34:38;;;;;;;6.57;2.92;;;26.00;98.80;;;;;;5050678;28;20203;-79
2021/06/01 17:37:06;;;;;;;3.13;2.45;;;25.90;98.70;;;;;;5052405;28;20223;-76
2021/06/01 17:39:35;;;;;;;4.60;2.60;;;25.80;98.40;;;;;;5060326;28;20196;-78